sensor_id;sensor_type;location;lat;lon;timestamp;pressure;altitude;pressure_sealevel;temperature;humidity
20368;BME280;10343;52.402;9.796;2023-05-19T00:00:58;102143.88;;;17.25;38.98
20368;BME280;10343;52.402;9.796;2023-05-19T00:03:27;102138.34;;;17.31;38.81
20368;BME280;10343;52.402;9.796;2023-05-19T00:05:57;102135.19;;;17.48;38.58
20368;BME280;10343;52.402;9.796;2023-05-19T00:08:29;102137.72;;;17.53;38.45
20368;BME280;10343;52.402;9.796;2023-05-19T00:10:58;102141.91;;;16.99;39.38
20368;BME280;10343;52.402;9.796;2023-05-19T00:13:27;102143.97;;;16.53;nan
20368;BME280;10343;52.402;9.796;2023-05-19T00:15:57;102147.44;;;16.93;39.91
20368;BME280;10343;52.402;9.796;2023-05-19T00:18:26;102142.19;;;17.21;39.50
20368;BME280;10343;52.402;9.796;2023-05-19T00:20:55;102137.97;;;16.78;40.29
20368;BME280;10343;52.402;9.796;2023-05-19T00:23:23;102140.38;;;17.23;39.76
20368;BME280;10343;52.402;9.796;2023-05-19T00:25:51;102138.41;;;16.97;39.98
20368;BME280;10343;52.402;9.796;2023-05-19T00:28:19;102145.44;;;17.01;39.83
20368;BME280;10343;52.402;9.796;2023-05-19T00:30:47;102136.84;;;17.53;39.47
20368;BME280;10343;52.402;9.796;2023-05-19T00:33:17;102131.84;;;17.40;39.36
20368;BME280;10343;52.402;9.796;2023-05-19T00:35:45;102137.88;;;17.15;40.02
20368;BME280;10343;52.402;9.796;2023-05-19T00:38:13;102135.88;;;17.24;39.64
20368;BME280;10343;52.402;9.796;2023-05-19T00:40:41;102131.38;;;16.93;40.29
20368;BME280;10343;52.402;9.796;2023-05-19T00:43:10;102136.78;;;16.90;40.50
20368;BME280;10343;52.402;9.796;2023-05-19T00:45:39;102123.59;;;17.17;39.97
20368;BME280;10343;52.402;9.796;2023-05-19T00:48:07;102132.69;;;16.75;40.72
20368;BME280;10343;52.402;9.796;2023-05-19T00:50:37;102123.59;;;17.17;39.97
20368;BME280;10343;52.402;9.796;2023-05-19T00:53:06;102125.72;;;17.35;39.82
20368;BME280;10343;52.402;9.796;2023-05-19T00:55:36;102123.22;;;17.60;39.13
20368;BME280;10343;52.402;9.796;2023-05-19T00:58:08;102119.88;;;17.52;39.54
20368;BME280;10343;52.402;9.796;2023-05-19T01:00:37;102125.16;;;17.55;39.75
20368;BME280;10343;52.402;9.796;2023-05-19T01:03:06;102121.56;;;17.25;40.00
20368;BME280;10343;52.402;9.796;2023-05-19T01:05:40;102121.81;;;17.15;40.29
20368;BME280;10343;52.402;9.796;2023-05-19T01:08:10;102122.63;;;17.19;40.29
20368;BME280;10343;52.402;9.796;2023-05-19T01:10:39;102113.97;;;16.73;40.99
20368;BME280;10343;52.402;9.796;2023-05-19T01:13:07;102125.00;;;17.60;39.73
20368;BME280;10343;52.402;9.796;2023-05-19T01:15:41;102116.16;;;17.58;39.75
20368;BME280;10343;52.402;9.796;2023-05-19T01:18:20;102119.19;;;17.45;40.06
20368;BME280;10343;52.402;9.796;2023-05-19T01:24:16;102121.25;;;17.36;40.19
20368;BME280;10343;52.402;9.796;2023-05-19T01:27:12;102121.28;;;17.34;40.14
20368;BME280;10343;52.402;9.796;2023-05-19T01:30:08;102125.28;;;17.51;39.97
20368;BME280;10343;52.402;9.796;2023-05-19T01:32:38;102122.78;;;17.44;40.13
20368;BME280;10343;52.402;9.796;2023-05-19T01:35:09;102119.94;;;16.85;41.08
20368;BME280;10343;52.402;9.796;2023-05-19T01:37:40;102122.47;;;17.24;40.86
20368;BME280;10343;52.402;9.796;2023-05-19T01:40:09;102118.50;;;17.06;40.86
20368;BME280;10343;52.402;9.796;2023-05-19T01:42:38;102121.50;;;17.58;40.07
20368;BME280;10343;52.402;9.796;2023-05-19T01:45:10;102126.03;;;16.93;41.39
20368;BME280;10343;52.402;9.796;2023-05-19T01:47:41;102127.59;;;17.00;41.24
20368;BME280;10343;52.402;9.796;2023-05-19T01:50:09;102125.50;;;17.11;41.08
20368;BME280;10343;52.402;9.796;2023-05-19T01:52:38;102123.22;;;17.29;40.96
20368;BME280;10343;52.402;9.796;2023-05-19T01:55:07;102130.41;;;17.27;40.79
20368;BME280;10343;52.402;9.796;2023-05-19T01:57:42;102132.34;;;17.22;40.79
20368;BME280;10343;52.402;9.796;2023-05-19T02:00:23;102135.47;;;17.06;41.13
20368;BME280;10343;52.402;9.796;2023-05-19T02:03:07;102136.34;;;17.07;41.04
20368;BME280;10343;52.402;9.796;2023-05-19T02:05:45;102131.72;;;17.13;40.89
20368;BME280;10343;52.402;9.796;2023-05-19T02:08:23;102131.09;;;17.02;41.31
20368;BME280;10343;52.402;9.796;2023-05-19T02:11:01;102131.38;;;16.93;41.71
20368;BME280;10343;52.402;9.796;2023-05-19T02:13:34;102123.91;;;16.70;41.87
20368;BME280;10343;52.402;9.796;2023-05-19T02:16:06;102125.41;;;17.14;41.58
20368;BME280;10343;52.402;9.796;2023-05-19T02:18:35;102122.47;;;16.91;41.71
20368;BME280;10343;52.402;9.796;2023-05-19T02:21:05;102130.66;;;16.48;42.33
20368;BME280;10343;52.402;9.796;2023-05-19T02:23:39;102130.50;;;16.56;42.60
20368;BME280;10343;52.402;9.796;2023-05-19T02:26:07;102124.47;;;16.83;42.04
20368;BME280;10343;52.402;9.796;2023-05-19T02:28:36;102129.56;;;16.93;41.92
20368;BME280;10343;52.402;9.796;2023-05-19T02:31:05;102130.31;;;16.64;42.58
20368;BME280;10343;52.402;9.796;2023-05-19T02:33:35;102126.00;;;16.57;42.75
20368;BME280;10343;52.402;9.796;2023-05-19T02:36:04;102121.63;;;16.53;43.11
20368;BME280;10343;52.402;9.796;2023-05-19T02:38:32;102117.50;;;17.10;41.86
20368;BME280;10343;52.402;9.796;2023-05-19T02:41:01;102121.69;;;16.51;42.83
20368;BME280;10343;52.402;9.796;2023-05-19T02:43:30;102115.66;;;16.77;42.31
20368;BME280;10343;52.402;9.796;2023-05-19T02:45:58;102114.56;;;16.86;42.21
20368;BME280;10343;52.402;9.796;2023-05-19T02:48:28;102125.25;;;16.52;43.01
20368;BME280;10343;52.402;9.796;2023-05-19T02:50:56;102115.41;;;16.52;42.92
20368;BME280;10343;52.402;9.796;2023-05-19T02:53:24;102111.28;;;16.39;43.23
20368;BME280;10343;52.402;9.796;2023-05-19T02:55:52;102113.91;;;16.04;44.61
20368;BME280;10343;52.402;9.796;2023-05-19T02:58:20;102108.94;;;16.25;43.68
20368;BME280;10343;52.402;9.796;2023-05-19T03:00:48;102111.88;;;16.52;43.34
20368;BME280;10343;52.402;9.796;2023-05-19T03:03:17;102108.72;;;16.70;42.81
20368;BME280;10343;52.402;9.796;2023-05-19T03:05:47;102104.97;;;16.76;42.50
20368;BME280;10343;52.402;9.796;2023-05-19T03:08:15;102113.63;;;16.89;42.57
20368;BME280;10343;52.402;9.796;2023-05-19T03:10:44;102106.59;;;17.16;41.99
20368;BME280;10343;52.402;9.796;2023-05-19T03:13:12;102108.94;;;16.61;42.84
20368;BME280;10343;52.402;9.796;2023-05-19T03:15:43;102114.91;;;16.36;43.86
20368;BME280;10343;52.402;9.796;2023-05-19T03:18:12;102108.84;;;16.29;43.96
20368;BME280;10343;52.402;9.796;2023-05-19T03:20:41;102107.25;;;16.21;44.44
20368;BME280;10343;52.402;9.796;2023-05-19T03:23:12;102113.00;;;16.41;43.96
20368;BME280;10343;52.402;9.796;2023-05-19T03:25:40;102100.13;;;16.57;43.57
20368;BME280;10343;52.402;9.796;2023-05-19T03:28:08;102101.31;;;16.45;43.98
20368;BME280;10343;52.402;9.796;2023-05-19T03:30:38;102099.31;;;16.18;44.58
20368;BME280;10343;52.402;9.796;2023-05-19T03:33:12;102107.72;;;16.02;44.69
20368;BME280;10343;52.402;9.796;2023-05-19T03:35:41;102107.97;;;16.29;44.48
20368;BME280;10343;52.402;9.796;2023-05-19T03:38:12;102108.47;;;16.07;44.73
20368;BME280;10343;52.402;9.796;2023-05-19T03:40:48;102100.38;;;16.10;44.82
20368;BME280;10343;52.402;9.796;2023-05-19T03:43:16;102101.22;;;16.12;44.57
20368;BME280;10343;52.402;9.796;2023-05-19T03:45:50;102101.19;;;16.14;44.80
20368;BME280;10343;52.402;9.796;2023-05-19T03:48:36;102100.50;;;16.04;45.19
20368;BME280;10343;52.402;9.796;2023-05-19T03:51:25;102115.41;;;15.33;46.78
20368;BME280;10343;52.402;9.796;2023-05-19T03:54:04;102106.91;;;16.35;45.05
20368;BME280;10343;52.402;9.796;2023-05-19T03:56:33;102107.34;;;16.54;43.96
20368;BME280;10343;52.402;9.796;2023-05-19T03:59:05;102103.72;;;16.20;44.99
20368;BME280;10343;52.402;9.796;2023-05-19T04:01:36;102107.47;;;16.13;45.07
20368;BME280;10343;52.402;9.796;2023-05-19T04:04:13;102116.88;;;15.90;45.38
20368;BME280;10343;52.402;9.796;2023-05-19T04:06:44;102108.16;;;16.21;45.02
20368;BME280;10343;52.402;9.796;2023-05-19T04:09:14;102106.44;;;16.19;45.12
20368;BME280;10343;52.402;9.796;2023-05-19T04:11:45;102107.81;;;16.35;44.92
20368;BME280;10343;52.402;9.796;2023-05-19T04:14:14;102102.47;;;16.35;44.60
20368;BME280;10343;52.402;9.796;2023-05-19T04:16:42;102095.78;;;16.53;44.65
20368;BME280;10343;52.402;9.796;2023-05-19T04:19:10;102108.72;;;16.70;44.34
20368;BME280;10343;52.402;9.796;2023-05-19T04:21:38;102115.41;;;16.52;44.27
20368;BME280;10343;52.402;9.796;2023-05-19T04:24:07;102112.69;;;16.54;44.78
20368;BME280;10343;52.402;9.796;2023-05-19T04:26:36;102115.91;;;16.68;44.19
20368;BME280;10343;52.402;9.796;2023-05-19T04:29:08;102115.16;;;16.27;45.22
20368;BME280;10343;52.402;9.796;2023-05-19T04:31:37;102115.50;;;16.11;45.57
20368;BME280;10343;52.402;9.796;2023-05-19T04:34:07;102120.44;;;15.91;46.16
20368;BME280;10343;52.402;9.796;2023-05-19T04:36:36;102115.84;;;16.35;45.23
20368;BME280;10343;52.402;9.796;2023-05-19T04:39:05;102115.50;;;15.71;46.72
20368;BME280;10343;52.402;9.796;2023-05-19T04:41:39;102118.75;;;16.26;45.70
20368;BME280;10343;52.402;9.796;2023-05-19T04:44:10;102119.25;;;16.04;46.01
20368;BME280;10343;52.402;9.796;2023-05-19T04:46:40;102121.88;;;16.79;44.47
20368;BME280;10343;52.402;9.796;2023-05-19T04:49:11;102124.44;;;16.48;45.20
20368;BME280;10343;52.402;9.796;2023-05-19T04:51:40;102130.22;;;16.67;44.73
20368;BME280;10343;52.402;9.796;2023-05-19T04:54:10;102125.50;;;16.77;44.66
20368;BME280;10343;52.402;9.796;2023-05-19T04:56:40;102120.63;;;16.21;45.56
20368;BME280;10343;52.402;9.796;2023-05-19T04:59:10;102122.00;;;16.73;44.66
20368;BME280;10343;52.402;9.796;2023-05-19T05:01:38;102120.72;;;16.90;44.41
20368;BME280;10343;52.402;9.796;2023-05-19T05:04:11;102122.97;;;17.07;44.16
20368;BME280;10343;52.402;9.796;2023-05-19T05:06:41;102117.81;;;16.99;43.98
20368;BME280;10343;52.402;9.796;2023-05-19T05:09:14;102126.31;;;16.44;45.42
20368;BME280;10343;52.402;9.796;2023-05-19T05:11:45;102126.03;;;16.55;45.29
20368;BME280;10343;52.402;9.796;2023-05-19T05:14:14;102130.75;;;16.45;45.50
20368;BME280;10343;52.402;9.796;2023-05-19T05:16:43;102129.31;;;16.30;46.25
20368;BME280;10343;52.402;9.796;2023-05-19T05:19:16;102124.25;;;16.92;44.88
20368;BME280;10343;52.402;9.796;2023-05-19T05:21:47;102117.41;;;16.78;44.75
20368;BME280;10343;52.402;9.796;2023-05-19T05:24:21;102125.41;;;16.80;44.80
20368;BME280;10343;52.402;9.796;2023-05-19T05:26:55;102119.91;;;16.86;45.10
20368;BME280;10343;52.402;9.796;2023-05-19T05:29:25;102119.53;;;17.02;44.36
20368;BME280;10343;52.402;9.796;2023-05-19T05:31:54;102121.25;;;17.04;44.53
20368;BME280;10343;52.402;9.796;2023-05-19T05:34:23;102111.81;;;16.89;44.92
20368;BME280;10343;52.402;9.796;2023-05-19T05:36:52;102118.56;;;16.70;45.42
20368;BME280;10343;52.402;9.796;2023-05-19T05:39:21;102109.53;;;17.40;43.78
20368;BME280;10343;52.402;9.796;2023-05-19T05:41:49;102107.72;;;17.40;44.20
20368;BME280;10343;52.402;9.796;2023-05-19T05:44:20;102105.38;;;17.28;43.96
20368;BME280;10343;52.402;9.796;2023-05-19T05:46:49;102105.19;;;17.36;44.31
20368;BME280;10343;52.402;9.796;2023-05-19T05:49:19;102114.31;;;17.58;44.07
20368;BME280;10343;52.402;9.796;2023-05-19T05:51:49;102106.41;;;17.24;44.28
20368;BME280;10343;52.402;9.796;2023-05-19T05:54:37;102112.31;;;17.96;43.05
20368;BME280;10343;52.402;9.796;2023-05-19T05:57:08;102108.75;;;17.66;43.69
20368;BME280;10343;52.402;9.796;2023-05-19T05:59:39;102119.66;;;17.60;43.96
20368;BME280;10343;52.402;9.796;2023-05-19T06:02:07;102118.34;;;17.43;44.15
20368;BME280;10343;52.402;9.796;2023-05-19T06:04:39;102118.59;;;17.36;44.02
20368;BME280;10343;52.402;9.796;2023-05-19T06:07:48;102119.38;;;17.69;43.46
20368;BME280;10343;52.402;9.796;2023-05-19T06:10:22;102124.69;;;17.71;43.58
20368;BME280;10343;52.402;9.796;2023-05-19T06:12:53;102120.22;;;18.01;42.76
20368;BME280;10343;52.402;9.796;2023-05-19T06:16:07;102125.28;;;17.51;44.05
20368;BME280;10343;52.402;9.796;2023-05-19T06:18:44;102124.09;;;17.61;43.97
20368;BME280;10343;52.402;9.796;2023-05-19T06:21:13;102126.66;;;18.50;41.92
20368;BME280;10343;52.402;9.796;2023-05-19T06:23:45;102119.19;;;18.05;42.70
20368;BME280;10343;52.402;9.796;2023-05-19T06:26:13;102117.75;;;17.95;42.91
20368;BME280;10343;52.402;9.796;2023-05-19T06:28:43;102116.34;;;18.92;41.61
20368;BME280;10343;52.402;9.796;2023-05-19T06:31:13;102129.34;;;17.64;43.76
20368;BME280;10343;52.402;9.796;2023-05-19T06:33:53;102116.75;;;19.05;41.16
20368;BME280;10343;52.402;9.796;2023-05-19T06:36:21;102115.22;;;18.97;40.74
20368;BME280;10343;52.402;9.796;2023-05-19T06:38:53;102109.50;;;19.56;39.94
20368;BME280;10343;52.402;9.796;2023-05-19T06:41:23;102119.84;;;19.19;40.96
20368;BME280;10343;52.402;9.796;2023-05-19T06:43:52;102115.50;;;19.15;40.84
20368;BME280;10343;52.402;9.796;2023-05-19T06:46:21;102122.31;;;18.73;41.55
20368;BME280;10343;52.402;9.796;2023-05-19T06:48:50;102109.41;;;19.10;41.17
20368;BME280;10343;52.402;9.796;2023-05-19T06:51:22;102117.09;;;19.21;40.97
20368;BME280;10343;52.402;9.796;2023-05-19T06:53:56;102112.69;;;19.67;39.70
20368;BME280;10343;52.402;9.796;2023-05-19T06:56:26;102118.16;;;19.40;40.06
20368;BME280;10343;52.402;9.796;2023-05-19T06:58:55;102107.19;;;18.71;41.38
20368;BME280;10343;52.402;9.796;2023-05-19T07:01:29;102109.09;;;19.43;40.41
20368;BME280;10343;52.402;9.796;2023-05-19T07:03:58;102115.97;;;19.26;40.65
20368;BME280;10343;52.402;9.796;2023-05-19T07:06:26;102101.56;;;19.52;40.02
20368;BME280;10343;52.402;9.796;2023-05-19T07:08:56;102107.34;;;19.42;40.60
20368;BME280;10343;52.402;9.796;2023-05-19T07:11:24;102109.06;;;20.14;39.25
20368;BME280;10343;52.402;9.796;2023-05-19T07:13:53;102106.25;;;19.71;39.71
20368;BME280;10343;52.402;9.796;2023-05-19T07:16:26;102116.16;;;19.69;39.82
20368;BME280;10343;52.402;9.796;2023-05-19T07:18:54;102104.34;;;19.73;39.95
20368;BME280;10343;52.402;9.796;2023-05-19T07:21:22;102119.22;;;19.36;40.24
20368;BME280;10343;52.402;9.796;2023-05-19T07:23:50;102108.78;;;19.98;39.75
20368;BME280;10343;52.402;9.796;2023-05-19T07:26:20;102101.72;;;20.17;38.99
20368;BME280;10343;52.402;9.796;2023-05-19T07:28:48;102093.22;;;20.49;38.06
20368;BME280;10343;52.402;9.796;2023-05-19T07:31:20;102102.47;;;20.64;38.10
20368;BME280;10343;52.402;9.796;2023-05-19T07:33:49;102094.25;;;20.67;37.78
20368;BME280;10343;52.402;9.796;2023-05-19T07:36:20;102094.50;;;21.03;37.32
20368;BME280;10343;52.402;9.796;2023-05-19T07:38:48;102090.56;;;19.59;39.47
20368;BME280;10343;52.402;9.796;2023-05-19T07:41:16;102097.09;;;19.75;38.79
20368;BME280;10343;52.402;9.796;2023-05-19T07:43:46;102089.75;;;19.80;38.98
20368;BME280;10343;52.402;9.796;2023-05-19T07:46:14;102092.28;;;19.85;38.77
20368;BME280;10343;52.402;9.796;2023-05-19T07:48:42;102089.69;;;20.04;38.55
20368;BME280;10343;52.402;9.796;2023-05-19T07:51:11;102092.31;;;19.83;37.97
20368;BME280;10343;52.402;9.796;2023-05-19T07:53:39;102085.13;;;20.92;36.81
20368;BME280;10343;52.402;9.796;2023-05-19T07:56:07;102081.06;;;20.61;37.50
20368;BME280;10343;52.402;9.796;2023-05-19T07:58:35;102085.06;;;20.50;37.28
20368;BME280;10343;52.402;9.796;2023-05-19T08:01:05;102082.69;;;20.65;37.53
20368;BME280;10343;52.402;9.796;2023-05-19T08:03:33;102076.50;;;20.83;37.41
20368;BME280;10343;52.402;9.796;2023-05-19T08:06:01;102070.44;;;21.18;36.14
20368;BME280;10343;52.402;9.796;2023-05-19T08:08:30;102078.06;;;21.29;35.94
20368;BME280;10343;52.402;9.796;2023-05-19T08:11:01;102076.81;;;20.96;35.73
20368;BME280;10343;52.402;9.796;2023-05-19T08:13:30;102081.16;;;21.59;35.22
20368;BME280;10343;52.402;9.796;2023-05-19T08:15:58;102072.50;;;22.08;34.52
20368;BME280;10343;52.402;9.796;2023-05-19T08:18:28;102082.19;;;20.77;36.06
20368;BME280;10343;52.402;9.796;2023-05-19T08:20:56;102084.88;;;20.77;35.70
20368;BME280;10343;52.402;9.796;2023-05-19T08:23:24;102070.59;;;21.54;34.85
20368;BME280;10343;52.402;9.796;2023-05-19T08:25:52;102074.09;;;21.76;34.40
20368;BME280;10343;52.402;9.796;2023-05-19T08:28:20;102077.53;;;21.60;34.07
20368;BME280;10343;52.402;9.796;2023-05-19T08:30:49;102072.34;;;21.35;34.70
20368;BME280;10343;52.402;9.796;2023-05-19T08:33:17;102080.50;;;22.29;33.84
20368;BME280;10343;52.402;9.796;2023-05-19T08:35:48;102069.81;;;22.08;33.70
20368;BME280;10343;52.402;9.796;2023-05-19T08:38:17;102067.75;;;22.31;33.17
20368;BME280;10343;52.402;9.796;2023-05-19T08:40:45;102066.13;;;22.46;32.89
20368;BME280;10343;52.402;9.796;2023-05-19T08:43:14;102066.75;;;22.33;32.64
20368;BME280;10343;52.402;9.796;2023-05-19T08:45:43;102061.94;;;22.40;32.31
20368;BME280;10343;52.402;9.796;2023-05-19T08:48:12;102060.16;;;21.66;33.68
20368;BME280;10343;52.402;9.796;2023-05-19T08:50:45;102055.38;;;21.90;33.75
20368;BME280;10343;52.402;9.796;2023-05-19T08:53:19;102046.94;;;22.15;32.66
20368;BME280;10343;52.402;9.796;2023-05-19T08:56:00;102057.09;;;22.10;33.04
20368;BME280;10343;52.402;9.796;2023-05-19T08:58:37;102052.63;;;22.46;32.07
20368;BME280;10343;52.402;9.796;2023-05-19T09:01:06;102044.00;;;22.90;31.08
20368;BME280;10343;52.402;9.796;2023-05-19T09:03:35;102055.25;;;22.11;33.12
20368;BME280;10343;52.402;9.796;2023-05-19T09:06:05;102048.50;;;22.38;32.87
20368;BME280;10343;52.402;9.796;2023-05-19T09:08:35;102041.91;;;22.08;33.32
20368;BME280;10343;52.402;9.796;2023-05-19T09:11:04;102043.38;;;22.32;33.24
20368;BME280;10343;52.402;9.796;2023-05-19T09:13:32;102042.84;;;22.61;32.63
20368;BME280;10343;52.402;9.796;2023-05-19T09:16:02;102039.34;;;22.59;32.63
20368;BME280;10343;52.402;9.796;2023-05-19T09:18:31;102044.25;;;22.15;33.45
20368;BME280;10343;52.402;9.796;2023-05-19T09:21:00;102043.13;;;22.19;33.35
20368;BME280;10343;52.402;9.796;2023-05-19T09:23:31;102036.94;;;22.70;32.63
20368;BME280;10343;52.402;9.796;2023-05-19T09:26:03;102028.94;;;23.83;30.79
20368;BME280;10343;52.402;9.796;2023-05-19T09:28:34;102034.50;;;22.65;31.44
20368;BME280;10343;52.402;9.796;2023-05-19T09:31:04;102024.97;;;21.48;33.64
20368;BME280;10343;52.402;9.796;2023-05-19T09:33:33;102030.91;;;22.12;32.82
20368;BME280;10343;52.402;9.796;2023-05-19T09:36:02;102018.25;;;23.16;31.25
20368;BME280;10343;52.402;9.796;2023-05-19T09:38:31;102025.50;;;23.16;30.60
20368;BME280;10343;52.402;9.796;2023-05-19T09:41:00;102023.47;;;22.86;31.32
20368;BME280;10343;52.402;9.796;2023-05-19T09:43:31;102023.84;;;22.96;31.56
20368;BME280;10343;52.402;9.796;2023-05-19T09:46:02;102005.81;;;23.62;30.63
20368;BME280;10343;52.402;9.796;2023-05-19T09:48:31;102002.81;;;24.29;29.71
20368;BME280;10343;52.402;9.796;2023-05-19T09:51:00;102003.16;;;23.76;30.53
20368;BME280;10343;52.402;9.796;2023-05-19T09:53:29;102006.84;;;22.94;31.40
20368;BME280;10343;52.402;9.796;2023-05-19T09:55:59;102006.56;;;23.16;31.05
20368;BME280;10343;52.402;9.796;2023-05-19T09:58:31;101998.31;;;23.01;31.03
20368;BME280;10343;52.402;9.796;2023-05-19T10:01:02;101994.34;;;23.24;31.07
20368;BME280;10343;52.402;9.796;2023-05-19T10:03:32;101992.50;;;23.73;29.85
20368;BME280;10343;52.402;9.796;2023-05-19T10:06:01;101992.00;;;23.50;30.05
20368;BME280;10343;52.402;9.796;2023-05-19T10:08:31;101989.09;;;24.46;28.25
20368;BME280;10343;52.402;9.796;2023-05-19T10:11:00;101994.00;;;25.13;27.29
20368;BME280;10343;52.402;9.796;2023-05-19T10:13:31;101986.81;;;25.26;27.18
20368;BME280;10343;52.402;9.796;2023-05-19T10:16:00;101992.50;;;24.50;27.90
20368;BME280;10343;52.402;9.796;2023-05-19T10:18:29;101990.34;;;23.96;28.40
20368;BME280;10343;52.402;9.796;2023-05-19T10:20:59;101991.41;;;24.38;28.16
20368;BME280;10343;52.402;9.796;2023-05-19T10:23:29;101975.25;;;24.06;28.49
20368;BME280;10343;52.402;9.796;2023-05-19T10:25:58;101981.34;;;24.54;27.78
20368;BME280;10343;52.402;9.796;2023-05-19T10:28:33;101971.69;;;24.05;28.46
20368;BME280;10343;52.402;9.796;2023-05-19T10:31:04;101980.19;;;23.67;28.83
20368;BME280;10343;52.402;9.796;2023-05-19T10:33:41;101964.00;;;23.51;29.53
20368;BME280;10343;52.402;9.796;2023-05-19T10:36:26;101974.09;;;24.40;28.44
20368;BME280;10343;52.402;9.796;2023-05-19T10:39:04;101957.06;;;25.25;26.95
20368;BME280;10343;52.402;9.796;2023-05-19T10:41:38;101958.94;;;24.96;26.92
20368;BME280;10343;52.402;9.796;2023-05-19T10:44:19;101949.63;;;25.56;26.03
20368;BME280;10343;52.402;9.796;2023-05-19T10:46:49;101959.84;;;25.92;25.64
20368;BME280;10343;52.402;9.796;2023-05-19T10:49:21;101946.22;;;26.20;25.40
20368;BME280;10343;52.402;9.796;2023-05-19T10:51:51;101951.16;;;25.60;25.99
20368;BME280;10343;52.402;9.796;2023-05-19T10:54:38;101943.09;;;25.86;25.56
20368;BME280;10343;52.402;9.796;2023-05-19T10:57:07;101943.84;;;24.77;26.72
20368;BME280;10343;52.402;9.796;2023-05-19T10:59:36;101939.63;;;24.57;26.52
20368;BME280;10343;52.402;9.796;2023-05-19T11:02:05;101935.47;;;25.78;25.07
20368;BME280;10343;52.402;9.796;2023-05-19T11:04:38;101934.69;;;26.42;24.10
20368;BME280;10343;52.402;9.796;2023-05-19T11:07:17;101934.41;;;25.53;24.61
20368;BME280;10343;52.402;9.796;2023-05-19T11:09:48;101927.13;;;26.21;23.80
20368;BME280;10343;52.402;9.796;2023-05-19T11:12:21;101912.03;;;27.06;22.78
20368;BME280;10343;52.402;9.796;2023-05-19T11:14:53;101922.84;;;26.82;22.86
20368;BME280;10343;52.402;9.796;2023-05-19T11:17:23;101935.03;;;26.89;22.76
20368;BME280;10343;52.402;9.796;2023-05-19T11:19:54;101935.81;;;24.75;25.01
20368;BME280;10343;52.402;9.796;2023-05-19T11:22:23;101937.34;;;25.90;23.59
20368;BME280;10343;52.402;9.796;2023-05-19T11:24:53;101934.25;;;26.09;23.53
20368;BME280;10343;52.402;9.796;2023-05-19T11:27:24;101935.88;;;25.72;23.38
20368;BME280;10343;52.402;9.796;2023-05-19T11:29:55;101932.63;;;25.80;24.03
20368;BME280;10343;52.402;9.796;2023-05-19T11:32:25;101935.91;;;25.45;24.42
20368;BME280;10343;52.402;9.796;2023-05-19T11:34:54;101929.81;;;25.26;24.76
20368;BME280;10343;52.402;9.796;2023-05-19T11:37:22;101927.84;;;24.87;24.59
20368;BME280;10343;52.402;9.796;2023-05-19T11:39:51;101924.81;;;25.75;24.42
20368;BME280;10343;52.402;9.796;2023-05-19T11:42:19;101921.59;;;25.96;23.61
20368;BME280;10343;52.402;9.796;2023-05-19T11:44:48;101922.44;;;25.83;23.84
20368;BME280;10343;52.402;9.796;2023-05-19T11:47:18;101915.66;;;25.36;23.52
20368;BME280;10343;52.402;9.796;2023-05-19T11:49:47;101920.16;;;26.17;22.79
20368;BME280;10343;52.402;9.796;2023-05-19T11:52:15;101901.75;;;27.82;21.00
20368;BME280;10343;52.402;9.796;2023-05-19T11:54:47;101910.22;;;26.42;21.75
20368;BME280;10343;52.402;9.796;2023-05-19T11:57:15;101904.50;;;27.82;20.54
20368;BME280;10343;52.402;9.796;2023-05-19T11:59:43;101905.78;;;25.62;22.43
20368;BME280;10343;52.402;9.796;2023-05-19T12:02:16;101901.28;;;27.53;21.39
20368;BME280;10343;52.402;9.796;2023-05-19T12:04:46;101905.97;;;26.64;22.18
20368;BME280;10343;52.402;9.796;2023-05-19T12:07:18;101908.50;;;26.41;22.58
20368;BME280;10343;52.402;9.796;2023-05-19T12:09:49;101917.16;;;25.54;23.04
20368;BME280;10343;52.402;9.796;2023-05-19T12:12:19;101914.16;;;25.72;22.87
20368;BME280;10343;52.402;9.796;2023-05-19T12:14:49;101897.72;;;26.78;21.62
20368;BME280;10343;52.402;9.796;2023-05-19T12:17:18;101896.44;;;26.19;21.84
20368;BME280;10343;52.402;9.796;2023-05-19T12:19:49;101891.50;;;26.89;21.38
20368;BME280;10343;52.402;9.796;2023-05-19T12:22:17;101896.66;;;26.29;22.46
20368;BME280;10343;52.402;9.796;2023-05-19T12:24:46;101893.56;;;26.59;22.45
20368;BME280;10343;52.402;9.796;2023-05-19T12:27:17;101901.22;;;26.28;22.72
20368;BME280;10343;52.402;9.796;2023-05-19T12:29:49;101889.75;;;25.45;23.40
20368;BME280;10343;52.402;9.796;2023-05-19T12:32:21;101892.00;;;25.91;22.65
20368;BME280;10343;52.402;9.796;2023-05-19T12:34:55;101887.09;;;26.23;22.73
20368;BME280;10343;52.402;9.796;2023-05-19T12:37:25;101888.72;;;26.52;22.74
20368;BME280;10343;52.402;9.796;2023-05-19T12:39:56;101894.91;;;26.80;22.05
20368;BME280;10343;52.402;9.796;2023-05-19T12:42:25;101883.34;;;26.50;22.59
20368;BME280;10343;52.402;9.796;2023-05-19T12:44:58;101879.06;;;26.98;22.06
20368;BME280;10343;52.402;9.796;2023-05-19T12:47:30;101885.56;;;27.32;21.40
20368;BME280;10343;52.402;9.796;2023-05-19T12:50:03;101880.47;;;27.27;21.98
20368;BME280;10343;52.402;9.796;2023-05-19T12:52:32;101886.63;;;26.55;22.24
20368;BME280;10343;52.402;9.796;2023-05-19T12:55:02;101882.63;;;26.48;22.39
20368;BME280;10343;52.402;9.796;2023-05-19T12:57:34;101885.97;;;26.65;22.36
20368;BME280;10343;52.402;9.796;2023-05-19T13:00:03;101883.78;;;25.52;22.98
20368;BME280;10343;52.402;9.796;2023-05-19T13:02:34;101871.72;;;25.97;22.64
20368;BME280;10343;52.402;9.796;2023-05-19T13:05:04;101887.25;;;24.56;24.19
20368;BME280;10343;52.402;9.796;2023-05-19T13:07:32;101879.03;;;24.58;24.41
20368;BME280;10343;52.402;9.796;2023-05-19T13:10:01;101877.06;;;25.31;23.61
20368;BME280;10343;52.402;9.796;2023-05-19T13:12:29;101878.34;;;25.92;22.99